Time;durP1;ratioP1;P1;durP2;ratioP2;P2;SDS_P1;SDS_P2;PMS_P1;PMS_P2;Temp;Humidity;BMP_temperature;BMP_pressure;BME280_temperature;BME280_humidity;BME280_pressure;Samples;Min_cycle;Max_cycle;Signal;HPM_P1;HPM_P2
2021/04/26 05:01:02;;;;;;;2.87;2.67;;;;;;;4.96;62.43;100092.75;1842250;77;22877;-65
2021/04/26 05:03:50;;;;;;;4.42;2.62;;;;;;;4.93;62.30;100099.30;1809327;78;20938;-62
2021/04/26 05:06:38;;;;;;;2.70;2.50;;;;;;;4.96;62.27;100106.50;1802794;78;22209;-59
2021/04/26 05:09:24;;;;;;;;;;;;;;;5.03;62.15;100111.02;1773130;80;21017;-62
2021/04/26 05:12:11;;;;;;;2.27;2.17;;;;;;;5.11;61.83;100110.78;1721471;81;20398;-60
2021/04/26 05:15:00;;;;;;;2.87;2.67;;;;;;;5.17;61.66;100111.87;1761371;80;21822;-64
2021/04/26 05:17:30;;;;;;;6.17;4.03;;;;;;;5.25;61.62;100110.70;1748306;81;21009;-62
2021/04/26 05:20:00;;;;;;;6.37;3.30;;;;;;;5.34;61.46;100109.11;1734976;81;21920;-64
2021/04/26 05:22:29;;;;;;;4.67;3.02;;;;;;;5.44;61.12;100110.09;1770605;80;21033;-62
2021/04/26 05:25:08;;;;;;;3.75;2.58;;;;;;;5.53;60.75;100108.50;1738049;81;21661;-64
2021/04/26 05:27:39;;;;;;;5.83;3.50;;;;;;;5.60;60.61;100106.91;1762569;80;21619;-64
2021/04/26 05:30:09;;;;;;;5.33;4.60;;;;;;;5.68;60.29;100108.79;1773242;80;21602;-60
2021/04/26 05:32:38;;;;;;;5.83;4.62;;;;;;;5.76;60.05;100108.98;1789782;80;21351;-61
2021/04/26 05:35:09;;;;;;;3.30;3.00;;;;;;;5.84;59.85;100105.68;1767245;80;20977;-62
2021/04/26 05:37:38;;;;;;;5.10;2.90;;;;;;;5.93;59.83;100107.97;1758073;80;21024;-65
2021/04/26 05:40:08;;;;;;;3.50;2.90;;;;;;;6.06;59.73;100110.48;1760148;81;21927;-61
2021/04/26 05:42:38;;;;;;;5.55;3.92;;;;;;;6.20;59.32;100104.81;1756943;80;21024;-62
2021/04/26 05:45:08;;;;;;;7.80;4.25;;;;;;;6.37;58.42;100106.34;1779258;80;22350;-63
2021/04/26 05:47:39;;;;;;;5.10;4.17;;;;;;;6.55;57.85;100103.48;1759811;80;21597;-61
2021/04/26 05:50:08;;;;;;;4.75;3.15;;;;;;;6.79;57.25;100097.81;1754685;81;21541;-61
2021/04/26 05:52:36;;;;;;;4.35;3.45;;;;;;;7.05;56.66;100100.19;1780097;80;21159;-63
2021/04/26 05:55:07;;;;;;;3.58;3.17;;;;;;;7.28;55.63;100102.66;1759242;80;21002;-62
2021/04/26 05:57:35;;;;;;;5.30;3.67;;;;;;;7.47;54.59;100101.91;1740714;81;22126;-60
2021/04/26 06:00:06;;;;;;;3.40;3.08;;;;;;;7.58;54.05;100096.66;1760386;80;21733;-63
2021/04/26 06:02:37;;;;;;;2.62;2.42;;;;;;;7.66;53.65;100101.48;1737735;80;21089;-61
2021/04/26 06:05:07;;;;;;;2.72;2.40;;;;;;;7.71;53.46;100102.13;1753137;80;20998;-64
2021/04/26 06:07:36;;;;;;;3.33;2.30;;;;;;;7.75;52.95;100094.62;1759205;80;21019;-68
2021/04/26 06:10:06;;;;;;;4.05;2.80;;;;;;;7.81;53.02;100096.95;1751796;80;22101;-68
2021/04/26 06:12:35;;;;;;;4.72;2.47;;;;;;;7.89;52.82;100095.32;1734423;80;21021;-63
2021/04/26 06:15:06;;;;;;;3.27;2.90;;;;;;;8.00;52.73;100087.88;1738469;82;21627;-65
2021/04/26 06:17:36;;;;;;;4.53;2.35;;;;;;;8.14;52.52;100084.22;1745298;80;21014;-64
2021/04/26 06:20:06;;;;;;;2.75;2.47;;;;;;;8.29;51.50;100087.42;1734751;82;21050;-65
2021/04/26 06:22:34;;;;;;;3.67;3.10;;;;;;;8.43;51.19;100092.45;1729949;82;22285;-61
2021/04/26 06:25:04;;;;;;;3.92;2.83;;;;;;;8.59;50.69;100093.42;1728096;82;21477;-65
2021/04/26 06:27:33;;;;;;;2.92;2.62;;;;;;;8.81;49.47;100093.23;1726267;82;21675;-64
2021/04/26 06:30:01;;;;;;;3.37;3.08;;;;;;;9.01;49.21;100095.27;1743574;82;21690;-63
2021/04/26 06:32:30;;;;;;;3.47;3.15;;;;;;;9.28;49.03;100093.05;1744254;82;21505;-64
2021/04/26 06:34:59;;;;;;;3.02;2.72;;;;;;;9.57;48.53;100095.96;1758157;80;22277;-67
2021/04/26 06:37:28;;;;;;;4.53;3.35;;;;;;;9.83;48.64;100090.25;1764265;80;21019;-69
2021/04/26 06:39:56;;;;;;;3.22;2.92;;;;;;;10.13;48.40;100092.14;1744568;82;21640;-71
2021/04/26 06:42:25;;;;;;;6.12;3.52;;;;;;;10.43;48.03;100086.61;1744549;82;21644;-66
2021/04/26 06:44:54;;;;;;;3.77;3.20;;;;;;;10.77;47.23;100084.77;1744028;82;21711;-69
2021/04/26 06:47:22;;;;;;;4.03;2.92;;;;;;;11.06;46.61;100078.73;1751673;80;22295;-60
2021/04/26 06:49:53;;;;;;;3.98;3.37;;;;;;;11.25;45.07;100078.03;1766658;80;21571;-65
2021/04/26 06:52:21;;;;;;;3.83;3.42;;;;;;;11.32;44.87;100077.20;1789707;79;22188;-59
2021/04/26 06:54:51;;;;;;;5.30;4.08;;;;;;;11.51;44.33;100079.59;1780557;80;21360;-63
2021/04/26 06:57:20;;;;;;;4.65;3.90;;;;;;;11.70;43.61;100077.55;1790923;79;21627;-60
2021/04/26 06:59:48;;;;;;;5.42;3.08;;;;;;;11.80;43.07;100072.65;1797614;79;22168;-64
2021/04/26 07:02:17;;;;;;;5.42;4.33;;;;;;;11.80;42.50;100074.80;1717830;82;21582;-63
2021/04/26 07:04:45;;;;;;;6.42;5.05;;;;;;;11.83;42.50;100078.98;1745051;80;21738;-61
2021/04/26 07:07:14;;;;;;;8.93;6.62;;;;;;;11.87;42.18;100073.95;1756183;80;21620;-64
2021/04/26 07:09:43;;;;;;;7.70;5.20;;;;;;;11.92;41.78;100074.05;1755217;80;21492;-59
2021/04/26 07:12:12;;;;;;;7.28;4.97;;;;;;;11.93;41.25;100069.20;1752453;80;21508;-64
2021/04/26 07:14:40;;;;;;;14.15;7.87;;;;;;;11.94;41.46;100070.05;1760342;80;21670;-59
2021/04/26 07:17:09;;;;;;;10.88;6.25;;;;;;;11.91;41.19;100065.02;1805882;79;21484;-59
2021/04/26 07:19:39;;;;;;;13.18;5.85;;;;;;;11.86;40.81;100057.93;1813728;78;21673;-66
2021/04/26 07:22:11;;;;;;;7.95;4.87;;;;;;;11.79;40.24;100050.94;1812883;79;20934;-60
2021/04/26 07:24:42;;;;;;;10.90;5.42;;;;;;;11.67;40.69;100051.17;1800786;79;21514;-63
2021/04/26 07:27:11;;;;;;;9.13;5.00;;;;;;;11.58;40.77;100051.75;1743966;81;21509;-64
2021/04/26 07:29:40;;;;;;;8.68;5.72;;;;;;;11.55;39.65;100048.48;1744600;82;21512;-65
2021/04/26 07:32:08;;;;;;;7.22;5.75;;;;;;;11.53;38.45;100053.80;1744227;82;21655;-62
2021/04/26 07:34:37;;;;;;;7.67;4.80;;;;;;;11.36;37.52;100052.64;1744627;82;21588;-61
2021/04/26 07:37:06;;;;;;;7.12;5.53;;;;;;;11.16;37.98;100058.20;1743803;82;22125;-64
2021/04/26 07:39:35;;;;;;;6.87;5.37;;;;;;;11.15;38.40;100053.91;1733201;82;21610;-63
2021/04/26 07:42:05;;;;;;;7.37;5.62;;;;;;;11.23;38.16;100057.72;1756212;81;21037;-65
2021/04/26 07:44:36;;;;;;;7.72;6.08;;;;;;;11.27;37.88;100057.92;1791958;79;21060;-58
2021/04/26 07:47:05;;;;;;;7.37;5.85;;;;;;;11.24;38.28;100055.95;1807284;79;21623;-61
2021/04/26 07:49:34;;;;;;;9.75;6.28;;;;;;;11.33;38.54;100054.13;1775225;79;22101;-62
2021/04/26 07:52:05;;;;;;;6.80;5.22;;;;;;;11.50;38.49;100048.76;1793772;79;21578;-60
2021/04/26 07:54:33;;;;;;;6.70;5.20;;;;;;;11.68;37.28;100048.09;1781699;80;21361;-64
2021/04/26 07:57:02;;;;;;;6.28;5.17;;;;;;;11.67;36.78;100051.17;1754479;80;21651;-63
2021/04/26 07:59:30;;;;;;;4.97;4.33;;;;;;;11.73;36.97;100051.27;1753316;80;21622;-62
2021/04/26 08:01:59;;;;;;;6.45;4.62;;;;;;;11.90;36.29;100056.81;1751152;81;22354;-64
2021/04/26 08:04:27;;;;;;;6.53;4.85;;;;;;;12.10;36.06;100050.34;1783633;80;21575;-61
2021/04/26 08:06:56;;;;;;;6.20;5.28;;;;;;;12.27;35.24;100050.98;1799807;78;20983;-65
2021/04/26 08:09:25;;;;;;;6.65;5.95;;;;;;;12.38;34.41;100043.79;1808833;78;21468;-67
2021/04/26 08:11:54;;;;;;;7.50;5.55;;;;;;;12.47;34.80;100043.64;1815320;78;21610;-62
2021/04/26 08:14:23;;;;;;;7.03;5.67;;;;;;;12.56;34.95;100045.67;1811215;78;22028;-61
2021/04/26 08:16:52;;;;;;;7.65;6.33;;;;;;;12.58;34.85;100048.56;1791683;78;20910;-63
2021/04/26 08:19:21;;;;;;;7.83;6.22;;;;;;;12.63;34.63;100039.12;1810305;78;20926;-63
2021/04/26 08:21:50;;;;;;;9.65;6.95;;;;;;;12.73;33.45;100034.16;1812536;78;21653;-62
2021/04/26 08:24:19;;;;;;;7.00;5.58;;;;;;;12.65;32.62;100032.87;1792468;78;20934;-64
2021/04/26 08:26:47;;;;;;;7.92;7.10;;;;;;;12.61;32.59;100037.08;1789334;79;22167;-67
2021/04/26 08:29:16;;;;;;;12.95;7.78;;;;;;;12.57;32.76;100037.74;1796904;78;21590;-63
2021/04/26 08:31:46;;;;;;;7.42;6.00;;;;;;;12.49;33.45;100037.39;1797001;78;21107;-60
2021/04/26 08:34:15;;;;;;;5.97;5.00;;;;;;;12.43;32.47;100038.24;1798499;78;21077;-66
2021/04/26 08:36:44;;;;;;;9.98;6.87;;;;;;;12.43;31.97;100039.08;1809969;78;21555;-60
2021/04/26 08:39:15;;;;;;;6.65;5.67;;;;;;;12.50;31.94;100039.53;1789598;78;21898;-63
2021/04/26 08:41:44;;;;;;;6.25;4.10;;;;;;;12.56;32.10;100034.76;1789584;80;21606;-60
2021/04/26 08:44:13;;;;;;;6.30;5.10;;;;;;;12.55;31.85;100038.31;1761933;80;20958;-68
2021/04/26 08:46:43;;;;;;;7.92;5.85;;;;;;;12.42;31.64;100037.41;1746054;82;21496;-61
2021/04/26 08:49:12;;;;;;;5.42;4.85;;;;;;;12.29;32.56;100037.84;1821244;78;20922;-66
2021/04/26 08:51:41;;;;;;;5.58;4.85;;;;;;;12.29;32.11;100039.98;1822534;78;22087;-68
2021/04/26 08:54:12;;;;;;;4.10;3.37;;;;;;;12.34;32.28;100031.39;1822541;78;21479;-69
2021/04/26 08:56:42;;;;;;;4.72;3.87;;;;;;;12.30;31.60;100035.59;1789193;78;21024;-59
2021/04/26 08:59:11;;;;;;;4.45;2.50;;;;;;;12.11;31.51;100034.59;1790178;80;21491;-63
2021/04/26 09:01:39;;;;;;;2.90;2.60;;;;;;;11.89;31.32;100035.10;1730854;81;21655;-68
2021/04/26 09:04:12;;;;;;;2.58;2.37;;;;;;;11.74;32.00;100035.16;1744501;82;21199;-68
2021/04/26 09:06:59;;;;;;;2.50;2.30;;;;;;;11.70;31.61;100039.25;1775244;80;21500;-60
2021/04/26 09:09:44;;;;;;;4.05;2.83;;;;;;;11.47;31.15;100032.45;1715379;82;21010;-65
2021/04/26 09:12:28;;;;;;;3.98;3.20;;;;;;;11.14;32.37;100029.62;1752685;81;21563;-61
2021/04/26 09:15:03;;;;;;;5.17;3.90;;;;;;;11.09;32.23;100034.72;1735185;82;21575;-63
2021/04/26 09:17:41;;;;;;;7.10;4.70;;;;;;;11.07;32.00;100031.36;1715834;82;20971;-61
2021/04/26 09:20:22;;;;;;;3.10;2.80;;;;;;;11.05;32.91;100023.63;1763053;80;21021;-60
2021/04/26 09:23:00;;;;;;;4.08;3.42;;;;;;;11.05;32.34;100022.33;1775368;80;21589;-66
2021/04/26 09:25:40;;;;;;;2.60;2.40;;;;;;;10.94;33.26;100020.80;1775152;80;21086;-62
2021/04/26 09:28:19;;;;;;;4.03;3.35;;;;;;;10.89;33.65;100021.06;1775202;80;20958;-60
2021/04/26 09:30:57;;;;;;;4.60;3.05;;;;;;;10.81;33.27;100015.91;1725357;82;22334;-64
2021/04/26 09:33:37;;;;;;;2.90;2.60;;;;;;;10.54;33.33;100014.42;1741081;82;21030;-61
2021/04/26 09:36:22;;;;;;;2.50;2.30;;;;;;;10.21;33.22;100017.98;1764106;80;21610;-63
2021/04/26 09:38:54;;;;;;;2.65;2.15;;;;;;;9.96;32.86;100024.96;1792810;79;21191;-65
2021/04/26 09:41:32;;;;;;;2.25;2.10;;;;;;;9.85;32.01;100020.79;1797356;78;20946;-61
2021/04/26 09:44:09;;;;;;;3.27;2.40;;;;;;;9.83;32.23;100015.28;1746388;80;21202;-62
2021/04/26 09:46:51;;;;;;;5.37;3.55;;;;;;;9.82;32.57;100017.51;1724514;80;22099;-63
2021/04/26 09:49:26;;;;;;;3.22;2.92;;;;;;;9.89;32.83;100011.91;1730549;82;20953;-62
2021/04/26 09:51:58;;;;;;;3.20;2.90;;;;;;;10.12;33.53;100020.21;1727648;82;21090;-61
2021/04/26 09:54:40;;;;;;;2.80;2.60;;;;;;;10.31;33.28;100010.52;1718191;82;21147;-62
2021/04/26 09:57:09;;;;;;;2.50;2.30;;;;;;;10.44;32.67;99998.94;1719517;82;21368;-63
2021/04/26 09:59:38;;;;;;;2.17;2.08;;;;;;;10.52;33.14;100005.86;1745002;80;21031;-60
2021/04/26 10:02:10;;;;;;;3.22;2.77;;;;;;;10.53;33.22;100003.17;1747925;80;21676;-66
2021/04/26 10:04:40;;;;;;;5.53;2.40;;;;;;;10.49;33.44;100004.27;1756262;80;21021;-60
2021/04/26 10:07:14;;;;;;;3.00;2.70;;;;;;;10.48;33.85;100005.19;1716710;82;21603;-62
2021/04/26 10:09:47;;;;;;;5.67;3.02;;;;;;;10.54;33.91;99997.50;1745793;80;21365;-61
2021/04/26 10:12:16;;;;;;;2.42;2.22;;;;;;;10.63;34.63;100008.24;1739313;80;21037;-59
2021/04/26 10:14:45;;;;;;;5.78;2.90;;;;;;;10.77;34.90;100006.63;1718582;82;21555;-59
2021/04/26 10:17:15;;;;;;;2.40;2.20;;;;;;;10.89;34.36;100004.13;1730328;82;21006;-60
2021/04/26 10:19:52;;;;;;;2.25;2.05;;;;;;;10.91;33.13;100011.39;1771303;80;21073;-61
2021/04/26 10:22:39;;;;;;;2.00;1.90;;;;;;;10.81;32.57;100006.33;1772182;80;21436;-59
2021/04/26 10:25:14;;;;;;;3.05;1.60;;;;;;;10.73;32.33;100002.52;1770195;80;20967;-60
2021/04/26 10:27:45;;;;;;;1.80;1.70;;;;;;;10.74;32.54;100000.29;1753524;80;20960;-61
2021/04/26 10:30:19;;;;;;;2.40;2.20;;;;;;;10.90;33.03;100010.19;1743385;81;21023;-60
2021/04/26 10:33:04;;;;;;;2.60;2.40;;;;;;;11.07;32.18;100007.45;1721607;82;21594;-58
2021/04/26 10:35:46;;;;;;;2.43;2.20;;;;;;;11.08;31.31;100005.22;1814223;79;21363;-61
2021/04/26 10:38:44;;;;;;;2.50;2.27;;;;;;;11.04;31.06;100008.92;1813882;79;21009;-60
2021/04/26 10:41:14;;;;;;;2.83;2.47;;;;;;;10.91;31.26;100004.89;1813909;79;20930;-63
2021/04/26 10:43:47;;;;;;;2.70;2.25;;;;;;;10.80;31.96;100003.35;1767440;79;20946;-60
2021/04/26 10:46:19;;;;;;;3.55;2.40;;;;;;;10.70;32.29;100011.34;1792578;79;20993;-59
2021/04/26 10:49:10;;;;;;;2.17;2.05;;;;;;;10.54;32.21;100020.47;1813965;79;21236;-62
2021/04/26 10:51:39;;;;;;;3.00;2.20;;;;;;;10.33;33.16;100019.92;1813889;79;21583;-59
2021/04/26 10:54:08;;;;;;;3.08;2.50;;;;;;;10.22;33.76;100026.63;1797789;79;21645;-59
2021/04/26 10:56:38;;;;;;;3.85;2.45;;;;;;;10.23;34.62;100021.80;1798188;79;21187;-61
2021/04/26 10:59:22;;;;;;;2.33;2.12;;;;;;;10.29;34.49;100018.41;1792826;79;21014;-66
2021/04/26 11:01:52;;;;;;;7.03;2.27;;;;;;;10.36;34.34;100015.02;1787352;79;22345;-60
2021/04/26 11:04:21;;;;;;;3.60;2.40;;;;;;;10.44;34.29;100015.39;1788182;79;21051;-58
2021/04/26 11:07:04;;;;;;;5.25;3.45;;;;;;;10.49;34.67;100017.28;1697297;83;21694;-61
2021/04/26 11:09:37;;;;;;;2.90;2.58;;;;;;;10.56;35.25;100018.62;1771531;81;20899;-60
2021/04/26 11:12:31;;;;;;;3.27;2.70;;;;;;;10.69;34.82;100016.17;1775018;79;21603;-60
2021/04/26 11:15:21;;;;;;;3.92;3.33;;;;;;;10.80;34.85;100009.86;1772085;79;22245;-61
2021/04/26 11:17:50;;;;;;;2.60;2.40;;;;;;;10.96;34.72;100017.64;1770613;81;21045;-59
2021/04/26 11:20:24;;;;;;;3.33;2.08;;;;;;;11.01;33.66;100019.06;1791366;79;21005;-58
2021/04/26 11:22:58;;;;;;;2.08;1.90;;;;;;;10.99;34.55;100018.77;1789682;79;21021;-59
2021/04/26 11:25:39;;;;;;;2.25;2.08;;;;;;;10.99;34.92;100018.31;1802334;79;21184;-61
2021/04/26 11:28:15;;;;;;;2.22;2.10;;;;;;;10.95;35.28;100019.87;1794150;79;22141;-60
2021/04/26 11:30:51;;;;;;;1.98;1.87;;;;;;;10.90;35.08;100016.70;1783002;79;21507;-64
2021/04/26 11:33:20;;;;;;;2.45;2.10;;;;;;;10.93;35.10;100016.52;1779901;79;21594;-60
2021/04/26 11:36:12;;;;;;;2.30;2.10;;;;;;;10.92;35.10;100020.89;1778560;79;21603;-63
2021/04/26 11:38:40;;;;;;;2.20;2.00;;;;;;;10.83;35.05;100014.06;1781336;80;21002;-64
2021/04/26 11:42:32;;;;;;;1.92;1.70;;;;;;;10.69;36.39;100014.41;1829101;77;22822;-65
2021/04/26 11:45:08;;;;;;;2.37;2.17;;;;;;;10.52;37.55;100009.77;1798053;79;21007;-63
2021/04/26 11:47:37;;;;;;;1.87;1.77;;;;;;;10.49;37.38;100007.33;1726928;82;21361;-63
2021/04/26 11:50:07;;;;;;;2.00;1.85;;;;;;;10.52;37.69;99999.35;1742697;81;20953;-60
2021/04/26 11:52:36;;;;;;;3.35;1.90;;;;;;;10.55;37.15;100007.83;1741840;81;21710;-64
2021/04/26 11:55:18;;;;;;;2.27;2.08;;;;;;;10.59;37.23;100008.04;1742669;81;21582;-60
2021/04/26 11:57:57;;;;;;;2.02;1.72;;;;;;;10.58;35.37;100005.52;1744091;81;21025;-66
2021/04/26 12:00:30;;;;;;;5.85;2.37;;;;;;;10.55;35.97;99993.52;1746006;81;21368;-60
2021/04/26 12:03:09;;;;;;;2.98;2.62;;;;;;;10.70;36.31;99995.72;1755010;81;21191;-58
2021/04/26 12:05:38;;;;;;;4.83;3.60;;;;;;;10.89;35.31;99995.02;1755736;81;20958;-66
2021/04/26 12:08:07;;;;;;;4.05;2.45;;;;;;;10.85;35.24;99992.67;1751826;81;20942;-59
2021/04/26 12:10:40;;;;;;;2.30;2.10;;;;;;;10.85;34.86;99989.61;1742002;81;21559;-62
2021/04/26 12:13:15;;;;;;;2.77;2.22;;;;;;;10.91;34.44;99992.33;1742133;81;21202;-60
2021/04/26 12:15:59;;;;;;;1.60;1.50;;;;;;;11.03;34.91;99987.70;1741756;81;21096;-67
2021/04/26 12:18:28;;;;;;;4.15;2.05;;;;;;;11.16;33.24;99989.13;1728730;81;20942;-59
2021/04/26 12:20:56;;;;;;;1.60;1.50;;;;;;;11.16;32.69;99989.97;1746918;80;20899;-67
2021/04/26 12:23:25;;;;;;;1.67;1.57;;;;;;;11.02;32.19;99977.75;1741176;81;21593;-61
2021/04/26 12:25:54;;;;;;;1.80;1.70;;;;;;;10.87;32.73;99981.70;1744637;81;22091;-59
2021/04/26 12:28:23;;;;;;;1.70;1.60;;;;;;;10.67;32.78;99978.50;1742637;81;21036;-60
2021/04/26 12:30:53;;;;;;;1.90;1.70;;;;;;;10.54;33.37;99970.16;1743163;80;21563;-59
2021/04/26 12:33:33;;;;;;;2.12;1.92;;;;;;;10.45;33.15;99978.03;1741473;82;20960;-61
2021/04/26 12:36:03;;;;;;;2.72;2.52;;;;;;;10.33;33.51;99974.84;1747098;81;21463;-60
2021/04/26 12:38:35;;;;;;;2.62;2.40;;;;;;;10.26;34.20;99968.29;1747238;81;21190;-62
2021/04/26 12:41:05;;;;;;;3.42;2.08;;;;;;;10.31;35.09;99964.51;1728654;82;21516;-60
2021/04/26 12:43:36;;;;;;;1.80;1.70;;;;;;;10.40;36.29;99955.81;1712433;83;20956;-59
2021/04/26 12:46:08;;;;;;;2.12;1.92;;;;;;;10.54;36.85;99971.47;1732716;81;21104;-67
2021/04/26 12:48:37;;;;;;;3.50;2.65;;;;;;;10.67;35.30;99970.69;1772990;81;21197;-59
2021/04/26 12:51:06;;;;;;;3.87;3.22;;;;;;;10.77;34.76;99969.70;1755009;81;22153;-58
2021/04/26 12:53:36;;;;;;;2.40;2.20;;;;;;;10.82;34.64;99968.94;1730338;83;21495;-58
2021/04/26 12:56:17;;;;;;;2.20;2.10;;;;;;;10.81;34.24;99971.17;1742048;82;20971;-62
2021/04/26 12:58:51;;;;;;;2.55;2.10;;;;;;;10.69;34.34;99970.14;1747316;81;21573;-60
2021/04/26 13:01:25;;;;;;;3.12;1.80;;;;;;;10.54;34.36;99972.30;1748594;81;21604;-60
2021/04/26 13:04:01;;;;;;;5.20;2.17;;;;;;;10.47;34.96;99967.53;1772361;81;21329;-58
2021/04/26 13:06:43;;;;;;;11.73;3.47;;;;;;;10.50;35.94;99966.06;1770753;81;21014;-60
2021/04/26 13:09:09;;;;;;;4.15;2.55;;;;;;;10.47;37.30;99975.34;1733663;82;21651;-63
2021/04/26 13:11:40;;;;;;;6.55;4.22;;;;;;;10.34;38.48;99986.92;1745581;81;21055;-60
2021/04/26 13:14:11;;;;;;;4.65;2.77;;;;;;;10.07;38.91;99984.03;1756032;81;21680;-62
2021/04/26 13:16:41;;;;;;;2.75;2.17;;;;;;;9.75;39.18;99994.05;1743948;82;21261;-60
2021/04/26 13:19:11;;;;;;;2.98;2.50;;;;;;;9.43;39.48;99993.16;1750369;81;21032;-64
2021/04/26 13:21:44;;;;;;;2.45;2.25;;;;;;;9.20;40.30;99993.86;1737971;81;21013;-68
2021/04/26 13:24:23;;;;;;;2.80;2.52;;;;;;;9.03;40.84;99992.59;1712023;83;20976;-70
2021/04/26 13:27:04;;;;;;;2.35;2.15;;;;;;;8.89;41.03;99986.79;1736128;82;21625;-68
2021/04/26 13:29:33;;;;;;;2.50;1.87;;;;;;;8.85;40.49;99988.31;1730654;81;21194;-61
2021/04/26 13:32:05;;;;;;;5.58;3.37;;;;;;;8.85;40.91;99985.25;1746232;80;21567;-66
2021/04/26 13:34:38;;;;;;;4.08;3.25;;;;;;;8.91;41.33;99982.81;1742567;81;21508;-60
2021/04/26 13:37:07;;;;;;;5.62;4.08;;;;;;;8.97;42.36;99979.45;1731766;81;20962;-60
2021/04/26 13:39:35;;;;;;;4.90;3.60;;;;;;;9.02;42.21;99978.77;1740248;81;20959;-60
2021/04/26 13:42:05;;;;;;;4.45;3.33;;;;;;;9.05;41.08;99976.94;1726219;81;22180;-59
2021/04/26 13:44:34;;;;;;;3.12;2.80;;;;;;;9.06;40.54;99973.42;1709268;84;21505;-64
2021/04/26 13:47:02;;;;;;;5.67;2.58;;;;;;;9.05;39.80;99963.49;1736032;82;21587;-61
2021/04/26 13:49:33;;;;;;;2.45;2.15;;;;;;;9.03;40.02;99965.33;1717318;81;20978;-64
2021/04/26 13:52:02;;;;;;;2.52;2.22;;;;;;;9.02;40.16;99963.19;1726570;81;21580;-61
2021/04/26 13:54:30;;;;;;;2.83;2.40;;;;;;;9.02;40.12;99966.24;1718744;81;21960;-63
2021/04/26 13:57:00;;;;;;;2.45;2.25;;;;;;;9.03;40.08;99966.17;1725687;81;21683;-62
2021/04/26 13:59:29;;;;;;;2.47;2.27;;;;;;;9.03;40.72;99964.87;1718364;81;21849;-61
2021/04/26 14:01:58;;;;;;;2.10;2.00;;;;;;;9.05;40.79;99963.49;1721917;82;21477;-60
2021/04/26 14:04:27;;;;;;;2.30;2.10;;;;;;;9.06;41.09;99964.33;1723057;81;21030;-60
2021/04/26 14:06:56;;;;;;;3.47;2.30;;;;;;;9.07;40.97;99957.77;1708527;82;21142;-59
2021/04/26 14:09:25;;;;;;;2.70;2.50;;;;;;;9.09;40.94;99957.23;1711435;82;21078;-60
